x

Mid Gulf - 180 Nm South Of Southwest Pass, La (42001) Wave Buoy

2:50am - Thu 5th Mar 2015 All times are UTC.

  • Sig Wave height 3.9ft
  • Peak Period 5s
  • Average Period 4s
  • Wind
    25mph, 27mph gusts
  • Sea Temp 80°f
  • Air Temp 78°f
  • Sea Pressure 1014.4mb

More Historic Weather Station data

Upgrade to MSW Pro to gain access to the past 30 days of data for over 8000 Wavebouys and Weather Stations around the globe.

Join Pro

Comparision Forecast

View Surf forecast
   
Thu 03/05 2:50am 4ft 5s 4s 25 27 mph 1014.4mb 80f 78f
1:50am 4.5ft 6s 4s 22 25 mph 1014.2mb 80f 78f
12:50am 4.5ft 5s 4s 22 27 mph 1013.4mb 80f 78f
Wed 03/04 11:50pm 4.5ft 4s 4s 25 29 mph 1013.3mb 80f 78f
10:50pm 4.5ft 4s 4s 25 29 mph 1013.2mb 80f 78f
9:50pm 4ft 4s 4s 22 25 mph 1013.6mb 80f 78f
8:50pm 4.5ft 5s 4s 22 27 mph 1013.9mb 80f 78f
7:50pm 4ft 5s 4s 22 29 mph 1014.3mb 80f 78f
6:50pm 3.5ft 4s 4s 22 27 mph 1014.9mb 80f 78f
5:50pm 4ft 4s 4s 22 27 mph 1015.9mb 80f 78f
4:50pm 4ft 4s 4s 25 27 mph 1016.5mb 79f 78f
3:50pm 4ft 4s 4s 22 27 mph 1016.6mb 79f 78f
2:50pm 4.5ft 4s 4s 25 29 mph 1016.4mb 79f 78f
1:50pm 4ft 4s 4s 25 31 mph 1015.9mb 79f 78f
12:50pm 4ft 4s 4s 27 31 mph 1015.3mb 79f 78f
11:50am 3.5ft 5s 4s 25 31 mph 1014.8mb 79f 78f
10:50am 4ft 4s 4s 25 29 mph 1014.5mb 79f 78f
9:50am 3.5ft 4s 4s 22 25 mph 1014.7mb 79f 78f
8:50am 3.5ft 4s 4s 20 25 mph 1014.7mb 79f 78f
7:50am 3.5ft 4s 4s 22 27 mph 1014.8mb 79f 78f
6:50am 3.5ft 4s 4s 22 25 mph 1015.5mb 79f 78f
5:50am 2.5ft 3s 3s 20 25 mph 1016.1mb 79f 77f
4:50am 3ft 3s 4s 20 22 mph 1016.5mb 79f 77f
3:50am 2.5ft 6s 4s 20 22 mph 1016.7mb 79f 77f
2:50am 2.5ft 5s 4s 16 20 mph 1016.8mb 79f 77f
1:50am 2.5ft 4s 4s 16 18 mph 1016.8mb 79f 77f
12:50am 3ft 4s 4s 18 20 mph 1016.3mb 79f 77f
Tue 03/03 11:50pm 3ft 4s 4s 18 20 mph 1016.2mb 80f 77f
10:50pm 3ft 4s 4s 18 20 mph 1016.3mb 80f 77f
9:50pm 2.5ft 4s 4s 18 20 mph 1016.4mb 80f 77f
8:50pm 3ft 4s 4s 16 18 mph 1016.8mb 80f 77f
7:50pm 3ft 4s 4s 18 20 mph 1017.5mb 79f 77f
6:50pm 3ft 4s 4s 20 25 mph 1018.4mb 79f 77f
5:50pm 3.5ft 4s 4s 20 22 mph 1019.4mb 79f 78f
4:50pm 3.5ft 4s 4s 20 22 mph 1020.3mb 79f 78f
3:50pm 3ft 4s 4s 18 22 mph 1020.6mb 79f 77f
2:50pm 3ft 3s 4s 18 22 mph 1020.5mb 79f 77f
1:50pm 3ft 4s 4s 18 22 mph 1020.4mb 79f 77f
12:50pm 3ft 4s 4s 18 22 mph 1019.8mb 79f 76f
11:50am 3ft 4s 4s 18 20 mph 1019.6mb 79f 76f
10:50am 2.5ft 6s 4s 16 18 mph 1019.4mb 79f 77f
9:50am 3ft 6s 4s 16 20 mph 1019.4mb 79f 76f
8:50am 3ft 4s 4s 16 20 mph 1019.7mb 79f 77f
7:50am 3ft 3s 4s 18 20 mph 1020mb 79f 77f
6:50am 2.5ft 6s 4s 18 22 mph 1020.6mb 79f 77f
5:50am 2.5ft 5s 4s 18 20 mph 1021.3mb 79f 77f
4:50am 2.5ft 6s 4s 16 18 mph 1021.9mb 79f 78f
3:50am 2.5ft 6s 4s 16 18 mph 1022.1mb 79f 78f
2:50am 2.5ft 5s 4s 16 18 mph 1022.3mb 79f 78f
1:50am 3ft 6s 4s 16 18 mph 1022.1mb 79f 78f
12:50am 3ft 5s 4s 16 18 mph 1021.6mb 79f 78f
Mon 03/02 11:50pm 3ft 6s 4s 16 18 mph 1021.4mb 79f 78f
10:50pm 3.5ft 6s 4s 16 18 mph 1021.4mb 79f 78f
9:50pm 3.5ft 6s 4s 16 18 mph 1021.6mb 79f 78f
8:50pm 3.5ft 6s 4s 16 20 mph 1021.7mb 79f 78f
7:50pm 3.5ft 6s 4s 13 20 mph 1022.2mb 78f 76f
6:50pm 3.5ft 6s 4s 16 18 mph 1023mb 79f 77f
5:50pm 3.5ft 7s 4s 18 20 mph 1024mb 79f 77f
4:50pm 3.5ft 7s 4s 18 20 mph 1024.5mb 79f 77f
3:50pm 3.5ft 7s 4s 18 22 mph 1024.7mb 79f 77f
2:50pm 3.5ft 7s 5s 16 18 mph 1024.8mb 79f 77f
1:50pm 3.5ft 7s 5s 13 18 mph 1024.4mb 79f 77f
12:50pm 3ft 7s 5s 16 18 mph 1023.9mb 79f 77f
11:50am 3.5ft 8s 5s 13 16 mph 1023.5mb 79f 77f
10:50am 3.5ft 7s 5s 16 18 mph 1023.1mb 79f 77f
9:50am 3.5ft 8s 5s 13 16 mph 1022.9mb 79f 77f
8:50am 3.5ft 8s 5s 13
mph
1023.2mb 79f 77f
7:50am 3.5ft 8s 5s 11 13 mph 1023.5mb 79f 77f
6:50am 3.5ft 7s 5s 11 13 mph 1023.9mb 79f 77f
5:50am 3.5ft 6s 5s 13 16 mph 1024.3mb 79f 78f
4:50am 3.5ft 8s 5s 13 16 mph 1024.5mb 79f 78f
3:50am 4.5ft 8s 5s 13 16 mph 1024.6mb 79f 78f
2:50am 4.5ft 7s 5s 13 16 mph 1024.5mb 79f 78f
1:50am 4.5ft 8s 5s 13 16 mph 1024.1mb 79f 78f
12:50am 4.5ft 8s 5s 13 18 mph 1023.4mb 79f 78f
Sun 03/01 11:50pm 4.5ft 8s 5s 16 18 mph 1023.1mb 79f 78f
10:50pm 5ft 7s 5s 16
mph
1022.8mb 79f 78f
9:50pm 5.5ft 8s 5s 16 20 mph 1022.6mb 79f 78f
8:50pm 5ft 8s 5s 18 20 mph 1022.8mb 79f 78f
7:50pm 5ft 8s 5s 18 20 mph 1023.1mb 79f 78f
6:50pm 5ft 8s 4s 20 22 mph 1023.7mb 79f 78f
5:50pm 5ft 7s 5s 20 22 mph 1024.3mb 79f 78f
4:50pm 5ft 7s 5s 20 25 mph 1025mb 79f 78f
3:50pm 5ft 8s 5s 20 25 mph 1024.9mb 79f 78f
2:50pm 4.5ft 7s 5s 20 25 mph 1024.5mb 79f 78f
1:50pm 5ft 7s 5s 20 22 mph 1024mb 79f 78f
12:50pm 5ft 7s 5s 20 22 mph 1023.6mb 79f 77f
11:50am 5ft 7s 5s 20 22 mph 1023.1mb 79f 77f
10:50am 5ft 8s 5s 20 22 mph 1022.4mb 79f 76f
9:50am 6ft 6s 5s 20 22 mph 1022.1mb 79f 76f
8:50am 6ft 8s 5s 20 27 mph 1022.1mb 79f 76f
7:50am 6ft 6s 5s 22 27 mph 1022.4mb 79f 76f
6:50am 6ft 7s 5s 22 27 mph 1022.8mb 79f 76f
5:50am 6ft 7s 5s 22 29 mph 1023.1mb 79f 75f
4:50am 6.5ft 6s 5s 25 29 mph 1023.4mb 79f 75f